sensor_id;sensor_type;location;lat;lon;timestamp;P1;durP1;ratioP1;P2;durP2;ratioP2
31754;SDS011;18325;52.018;4.726;2023-10-31T00:02:27;7.40;;;3.53;;
31754;SDS011;18325;52.018;4.726;2023-10-31T00:04:54;7.00;;;3.70;;
31754;SDS011;18325;52.018;4.726;2023-10-31T00:10:44;7.30;;;4.00;;
31754;SDS011;18325;52.018;4.726;2023-10-31T00:13:11;7.47;;;4.20;;
31754;SDS011;18325;52.018;4.726;2023-10-31T00:15:41;7.60;;;4.13;;
31754;SDS011;18325;52.018;4.726;2023-10-31T00:18:20;7.80;;;4.47;;
31754;SDS011;18325;52.018;4.726;2023-10-31T00:20:47;10.27;;;4.03;;
31754;SDS011;18325;52.018;4.726;2023-10-31T00:26:14;6.70;;;3.70;;
31754;SDS011;18325;52.018;4.726;2023-10-31T00:31:58;5.87;;;3.40;;
31754;SDS011;18325;52.018;4.726;2023-10-31T00:34:37;6.07;;;3.80;;
31754;SDS011;18325;52.018;4.726;2023-10-31T00:37:13;4.90;;;2.90;;
31754;SDS011;18325;52.018;4.726;2023-10-31T00:39:42;8.43;;;3.37;;
31754;SDS011;18325;52.018;4.726;2023-10-31T00:44:58;9.17;;;3.60;;
31754;SDS011;18325;52.018;4.726;2023-10-31T00:47:47;8.93;;;4.00;;
31754;SDS011;18325;52.018;4.726;2023-10-31T00:53:25;4.93;;;3.57;;
31754;SDS011;18325;52.018;4.726;2023-10-31T00:55:54;8.33;;;4.27;;
31754;SDS011;18325;52.018;4.726;2023-10-31T00:58:21;9.73;;;4.63;;
31754;SDS011;18325;52.018;4.726;2023-10-31T01:00:48;10.70;;;5.03;;
31754;SDS011;18325;52.018;4.726;2023-10-31T01:03:24;6.50;;;3.80;;
31754;SDS011;18325;52.018;4.726;2023-10-31T01:05:50;6.47;;;4.20;;
31754;SDS011;18325;52.018;4.726;2023-10-31T01:08:19;5.70;;;3.90;;
31754;SDS011;18325;52.018;4.726;2023-10-31T01:10:49;9.20;;;4.80;;
31754;SDS011;18325;52.018;4.726;2023-10-31T01:13:16;7.53;;;4.83;;
31754;SDS011;18325;52.018;4.726;2023-10-31T01:15:42;8.13;;;4.00;;
31754;SDS011;18325;52.018;4.726;2023-10-31T01:18:09;7.30;;;4.23;;
31754;SDS011;18325;52.018;4.726;2023-10-31T01:20:37;8.97;;;4.50;;
31754;SDS011;18325;52.018;4.726;2023-10-31T01:23:05;8.50;;;4.13;;
31754;SDS011;18325;52.018;4.726;2023-10-31T01:25:31;6.23;;;3.70;;
31754;SDS011;18325;52.018;4.726;2023-10-31T01:27:58;11.73;;;4.47;;
31754;SDS011;18325;52.018;4.726;2023-10-31T01:30:25;6.13;;;3.63;;
31754;SDS011;18325;52.018;4.726;2023-10-31T01:33:00;9.17;;;4.30;;
31754;SDS011;18325;52.018;4.726;2023-10-31T01:38:22;7.23;;;4.27;;
31754;SDS011;18325;52.018;4.726;2023-10-31T01:40:49;7.90;;;4.20;;
31754;SDS011;18325;52.018;4.726;2023-10-31T01:46:18;12.53;;;4.60;;
31754;SDS011;18325;52.018;4.726;2023-10-31T01:48:44;7.53;;;4.20;;
31754;SDS011;18325;52.018;4.726;2023-10-31T01:51:16;5.23;;;4.00;;
31754;SDS011;18325;52.018;4.726;2023-10-31T01:53:43;6.53;;;4.07;;
31754;SDS011;18325;52.018;4.726;2023-10-31T01:56:10;8.83;;;4.20;;
31754;SDS011;18325;52.018;4.726;2023-10-31T01:58:37;9.43;;;4.27;;
31754;SDS011;18325;52.018;4.726;2023-10-31T02:01:05;9.13;;;3.93;;
31754;SDS011;18325;52.018;4.726;2023-10-31T02:03:32;5.13;;;3.13;;
31754;SDS011;18325;52.018;4.726;2023-10-31T02:05:59;6.53;;;2.97;;
31754;SDS011;18325;52.018;4.726;2023-10-31T02:08:33;6.97;;;3.13;;
31754;SDS011;18325;52.018;4.726;2023-10-31T02:11:17;4.50;;;2.50;;
31754;SDS011;18325;52.018;4.726;2023-10-31T02:13:43;7.03;;;3.23;;
31754;SDS011;18325;52.018;4.726;2023-10-31T02:16:10;5.33;;;2.70;;
31754;SDS011;18325;52.018;4.726;2023-10-31T02:18:37;4.67;;;2.33;;
31754;SDS011;18325;52.018;4.726;2023-10-31T02:21:13;4.73;;;2.70;;
31754;SDS011;18325;52.018;4.726;2023-10-31T02:23:55;6.93;;;2.47;;
31754;SDS011;18325;52.018;4.726;2023-10-31T02:26:27;5.77;;;2.10;;
31754;SDS011;18325;52.018;4.726;2023-10-31T02:28:55;4.23;;;2.20;;
31754;SDS011;18325;52.018;4.726;2023-10-31T02:31:21;3.23;;;1.90;;
31754;SDS011;18325;52.018;4.726;2023-10-31T02:33:48;2.63;;;1.60;;
31754;SDS011;18325;52.018;4.726;2023-10-31T02:36:21;4.07;;;1.53;;
31754;SDS011;18325;52.018;4.726;2023-10-31T02:39:17;2.63;;;1.27;;
31754;SDS011;18325;52.018;4.726;2023-10-31T02:41:44;3.40;;;1.60;;
31754;SDS011;18325;52.018;4.726;2023-10-31T02:44:11;3.30;;;1.37;;
31754;SDS011;18325;52.018;4.726;2023-10-31T02:46:38;4.00;;;1.33;;
31754;SDS011;18325;52.018;4.726;2023-10-31T02:49:41;2.93;;;1.40;;
31754;SDS011;18325;52.018;4.726;2023-10-31T02:52:08;2.63;;;1.83;;
31754;SDS011;18325;52.018;4.726;2023-10-31T02:54:37;4.80;;;1.90;;
31754;SDS011;18325;52.018;4.726;2023-10-31T02:57:14;3.57;;;1.87;;
31754;SDS011;18325;52.018;4.726;2023-10-31T02:59:42;4.00;;;2.27;;
31754;SDS011;18325;52.018;4.726;2023-10-31T03:02:09;5.77;;;1.87;;
31754;SDS011;18325;52.018;4.726;2023-10-31T03:04:36;2.57;;;1.73;;
31754;SDS011;18325;52.018;4.726;2023-10-31T03:07:03;2.90;;;1.67;;
31754;SDS011;18325;52.018;4.726;2023-10-31T03:09:30;4.17;;;1.60;;
31754;SDS011;18325;52.018;4.726;2023-10-31T03:12:19;2.67;;;1.20;;
31754;SDS011;18325;52.018;4.726;2023-10-31T03:14:47;3.73;;;1.20;;
31754;SDS011;18325;52.018;4.726;2023-10-31T03:17:13;1.10;;;1.00;;
31754;SDS011;18325;52.018;4.726;2023-10-31T03:20:00;1.47;;;0.67;;
31754;SDS011;18325;52.018;4.726;2023-10-31T03:22:38;3.60;;;0.83;;
31754;SDS011;18325;52.018;4.726;2023-10-31T03:25:05;3.07;;;0.90;;
31754;SDS011;18325;52.018;4.726;2023-10-31T03:27:40;1.93;;;0.80;;
31754;SDS011;18325;52.018;4.726;2023-10-31T03:30:23;0.87;;;0.70;;
31754;SDS011;18325;52.018;4.726;2023-10-31T03:32:50;1.10;;;1.00;;
31754;SDS011;18325;52.018;4.726;2023-10-31T03:35:17;1.63;;;0.87;;
31754;SDS011;18325;52.018;4.726;2023-10-31T03:37:52;4.90;;;1.40;;
31754;SDS011;18325;52.018;4.726;2023-10-31T03:43:42;3.13;;;1.67;;
31754;SDS011;18325;52.018;4.726;2023-10-31T03:46:08;3.33;;;1.77;;
31754;SDS011;18325;52.018;4.726;2023-10-31T03:51:57;3.27;;;1.03;;
31754;SDS011;18325;52.018;4.726;2023-10-31T03:54:23;1.20;;;1.10;;
31754;SDS011;18325;52.018;4.726;2023-10-31T03:56:50;3.23;;;1.90;;
31754;SDS011;18325;52.018;4.726;2023-10-31T03:59:18;2.13;;;1.00;;
31754;SDS011;18325;52.018;4.726;2023-10-31T04:01:47;1.13;;;0.87;;
31754;SDS011;18325;52.018;4.726;2023-10-31T04:04:13;1.00;;;0.80;;
31754;SDS011;18325;52.018;4.726;2023-10-31T04:06:40;1.73;;;1.00;;
31754;SDS011;18325;52.018;4.726;2023-10-31T04:09:11;2.03;;;1.00;;
31754;SDS011;18325;52.018;4.726;2023-10-31T04:11:39;0.63;;;0.60;;
31754;SDS011;18325;52.018;4.726;2023-10-31T04:16:58;0.50;;;0.50;;
31754;SDS011;18325;52.018;4.726;2023-10-31T04:19:24;1.93;;;0.60;;
31754;SDS011;18325;52.018;4.726;2023-10-31T04:21:52;1.90;;;0.63;;
31754;SDS011;18325;52.018;4.726;2023-10-31T04:24:19;1.10;;;0.80;;
31754;SDS011;18325;52.018;4.726;2023-10-31T04:26:46;4.20;;;0.83;;
31754;SDS011;18325;52.018;4.726;2023-10-31T04:29:13;0.50;;;0.47;;
31754;SDS011;18325;52.018;4.726;2023-10-31T04:31:41;3.03;;;0.70;;
31754;SDS011;18325;52.018;4.726;2023-10-31T04:34:07;1.50;;;0.97;;
31754;SDS011;18325;52.018;4.726;2023-10-31T04:36:34;3.30;;;0.60;;
31754;SDS011;18325;52.018;4.726;2023-10-31T04:39:06;1.20;;;0.60;;
31754;SDS011;18325;52.018;4.726;2023-10-31T04:41:33;1.17;;;0.63;;
31754;SDS011;18325;52.018;4.726;2023-10-31T04:44:00;2.63;;;0.80;;
31754;SDS011;18325;52.018;4.726;2023-10-31T04:46:28;1.00;;;0.80;;
31754;SDS011;18325;52.018;4.726;2023-10-31T04:48:55;0.60;;;0.60;;
31754;SDS011;18325;52.018;4.726;2023-10-31T04:51:22;0.83;;;0.60;;
31754;SDS011;18325;52.018;4.726;2023-10-31T04:53:49;1.20;;;0.57;;
31754;SDS011;18325;52.018;4.726;2023-10-31T04:56:33;0.53;;;0.53;;
31754;SDS011;18325;52.018;4.726;2023-10-31T04:59:01;1.70;;;0.93;;
31754;SDS011;18325;52.018;4.726;2023-10-31T05:01:41;1.40;;;0.77;;
31754;SDS011;18325;52.018;4.726;2023-10-31T05:04:17;2.20;;;0.80;;
31754;SDS011;18325;52.018;4.726;2023-10-31T05:06:43;4.97;;;1.47;;
31754;SDS011;18325;52.018;4.726;2023-10-31T05:09:10;8.43;;;2.00;;
31754;SDS011;18325;52.018;4.726;2023-10-31T05:11:37;2.23;;;1.40;;
31754;SDS011;18325;52.018;4.726;2023-10-31T05:14:04;3.27;;;1.60;;
31754;SDS011;18325;52.018;4.726;2023-10-31T05:16:30;2.77;;;1.53;;
31754;SDS011;18325;52.018;4.726;2023-10-31T05:18:57;3.87;;;2.10;;
31754;SDS011;18325;52.018;4.726;2023-10-31T05:24:53;7.43;;;2.23;;
31754;SDS011;18325;52.018;4.726;2023-10-31T05:27:25;2.27;;;2.07;;
31754;SDS011;18325;52.018;4.726;2023-10-31T05:33:02;2.30;;;1.60;;
31754;SDS011;18325;52.018;4.726;2023-10-31T05:35:32;2.57;;;1.67;;
31754;SDS011;18325;52.018;4.726;2023-10-31T05:40:31;1.10;;;1.00;;
31754;SDS011;18325;52.018;4.726;2023-10-31T05:49:41;0.90;;;0.83;;
31754;SDS011;18325;52.018;4.726;2023-10-31T05:52:11;2.07;;;0.90;;
31754;SDS011;18325;52.018;4.726;2023-10-31T05:54:38;2.50;;;1.03;;
31754;SDS011;18325;52.018;4.726;2023-10-31T06:00:05;3.07;;;0.90;;
31754;SDS011;18325;52.018;4.726;2023-10-31T06:02:32;1.00;;;0.90;;
31754;SDS011;18325;52.018;4.726;2023-10-31T06:04:59;1.13;;;0.87;;
31754;SDS011;18325;52.018;4.726;2023-10-31T06:07:31;1.43;;;0.97;;
31754;SDS011;18325;52.018;4.726;2023-10-31T06:10:01;0.57;;;0.57;;
31754;SDS011;18325;52.018;4.726;2023-10-31T06:12:31;4.77;;;2.77;;
31754;SDS011;18325;52.018;4.726;2023-10-31T06:14:59;3.73;;;2.03;;
31754;SDS011;18325;52.018;4.726;2023-10-31T06:17:26;4.93;;;1.60;;
31754;SDS011;18325;52.018;4.726;2023-10-31T06:19:52;1.87;;;1.20;;
31754;SDS011;18325;52.018;4.726;2023-10-31T06:22:22;5.93;;;3.33;;
31754;SDS011;18325;52.018;4.726;2023-10-31T06:24:48;5.97;;;3.27;;
31754;SDS011;18325;52.018;4.726;2023-10-31T06:27:17;3.97;;;2.00;;
31754;SDS011;18325;52.018;4.726;2023-10-31T06:32:29;0.90;;;0.70;;
31754;SDS011;18325;52.018;4.726;2023-10-31T06:34:55;1.47;;;0.60;;
31754;SDS011;18325;52.018;4.726;2023-10-31T06:37:22;0.90;;;0.80;;
31754;SDS011;18325;52.018;4.726;2023-10-31T06:42:43;1.67;;;0.70;;
31754;SDS011;18325;52.018;4.726;2023-10-31T06:48:26;1.10;;;0.60;;
31754;SDS011;18325;52.018;4.726;2023-10-31T06:51:03;0.93;;;0.87;;
31754;SDS011;18325;52.018;4.726;2023-10-31T06:54:00;1.40;;;0.83;;
31754;SDS011;18325;52.018;4.726;2023-10-31T07:00:15;13.30;;;6.83;;
31754;SDS011;18325;52.018;4.726;2023-10-31T07:03:02;6.30;;;3.07;;
31754;SDS011;18325;52.018;4.726;2023-10-31T07:05:42;1.77;;;1.30;;
31754;SDS011;18325;52.018;4.726;2023-10-31T07:08:09;2.07;;;0.90;;
31754;SDS011;18325;52.018;4.726;2023-10-31T07:10:35;1.17;;;0.77;;
31754;SDS011;18325;52.018;4.726;2023-10-31T07:13:09;1.57;;;0.77;;
31754;SDS011;18325;52.018;4.726;2023-10-31T07:15:36;1.43;;;0.70;;
31754;SDS011;18325;52.018;4.726;2023-10-31T07:18:20;0.73;;;0.67;;
31754;SDS011;18325;52.018;4.726;2023-10-31T07:24:11;3.53;;;1.30;;
31754;SDS011;18325;52.018;4.726;2023-10-31T07:26:37;1.43;;;0.97;;
31754;SDS011;18325;52.018;4.726;2023-10-31T07:29:04;2.33;;;1.20;;
31754;SDS011;18325;52.018;4.726;2023-10-31T07:31:31;1.67;;;1.40;;
31754;SDS011;18325;52.018;4.726;2023-10-31T07:34:04;1.43;;;1.00;;
31754;SDS011;18325;52.018;4.726;2023-10-31T07:36:35;1.70;;;1.10;;
31754;SDS011;18325;52.018;4.726;2023-10-31T07:39:23;1.97;;;1.10;;
31754;SDS011;18325;52.018;4.726;2023-10-31T07:42:03;5.87;;;1.60;;
31754;SDS011;18325;52.018;4.726;2023-10-31T07:44:31;3.70;;;1.17;;
31754;SDS011;18325;52.018;4.726;2023-10-31T07:47:02;4.50;;;1.50;;
31754;SDS011;18325;52.018;4.726;2023-10-31T07:49:29;1.33;;;1.20;;
31754;SDS011;18325;52.018;4.726;2023-10-31T07:51:56;3.07;;;1.10;;
31754;SDS011;18325;52.018;4.726;2023-10-31T07:54:24;1.90;;;1.40;;
31754;SDS011;18325;52.018;4.726;2023-10-31T07:56:50;2.10;;;1.60;;
31754;SDS011;18325;52.018;4.726;2023-10-31T07:59:26;2.90;;;1.43;;
31754;SDS011;18325;52.018;4.726;2023-10-31T08:01:53;3.40;;;1.60;;
31754;SDS011;18325;52.018;4.726;2023-10-31T08:04:31;3.20;;;1.40;;
31754;SDS011;18325;52.018;4.726;2023-10-31T08:07:10;4.13;;;1.60;;
31754;SDS011;18325;52.018;4.726;2023-10-31T08:19:28;2.73;;;1.90;;
31754;SDS011;18325;52.018;4.726;2023-10-31T08:22:15;4.27;;;1.63;;
31754;SDS011;18325;52.018;4.726;2023-10-31T08:25:23;4.43;;;2.20;;
31754;SDS011;18325;52.018;4.726;2023-10-31T08:27:42;4.60;;;1.87;;
31754;SDS011;18325;52.018;4.726;2023-10-31T08:30:11;5.73;;;2.60;;
31754;SDS011;18325;52.018;4.726;2023-10-31T08:35:34;7.43;;;3.33;;
31754;SDS011;18325;52.018;4.726;2023-10-31T08:38:01;10.60;;;3.17;;
31754;SDS011;18325;52.018;4.726;2023-10-31T08:40:28;8.07;;;3.23;;
31754;SDS011;18325;52.018;4.726;2023-10-31T08:42:58;12.43;;;3.03;;
31754;SDS011;18325;52.018;4.726;2023-10-31T08:45:27;5.30;;;3.57;;
31754;SDS011;18325;52.018;4.726;2023-10-31T08:47:54;7.63;;;3.67;;
31754;SDS011;18325;52.018;4.726;2023-10-31T08:50:21;4.93;;;2.80;;
31754;SDS011;18325;52.018;4.726;2023-10-31T08:53:01;10.07;;;3.27;;
31754;SDS011;18325;52.018;4.726;2023-10-31T08:55:28;8.80;;;3.73;;
31754;SDS011;18325;52.018;4.726;2023-10-31T08:57:55;5.57;;;3.87;;
31754;SDS011;18325;52.018;4.726;2023-10-31T09:00:21;7.93;;;3.87;;
31754;SDS011;18325;52.018;4.726;2023-10-31T09:02:58;6.33;;;4.47;;
31754;SDS011;18325;52.018;4.726;2023-10-31T09:05:28;6.60;;;3.83;;
31754;SDS011;18325;52.018;4.726;2023-10-31T09:07:55;7.47;;;4.63;;
31754;SDS011;18325;52.018;4.726;2023-10-31T09:10:21;10.23;;;4.97;;
31754;SDS011;18325;52.018;4.726;2023-10-31T09:12:48;10.83;;;4.70;;
31754;SDS011;18325;52.018;4.726;2023-10-31T09:15:31;9.93;;;3.73;;
31754;SDS011;18325;52.018;4.726;2023-10-31T09:17:59;11.80;;;3.70;;
31754;SDS011;18325;52.018;4.726;2023-10-31T09:20:25;8.67;;;4.40;;
31754;SDS011;18325;52.018;4.726;2023-10-31T09:22:52;7.83;;;4.03;;
31754;SDS011;18325;52.018;4.726;2023-10-31T09:25:19;5.37;;;4.40;;
31754;SDS011;18325;52.018;4.726;2023-10-31T09:27:45;7.47;;;3.70;;
31754;SDS011;18325;52.018;4.726;2023-10-31T09:33:14;8.47;;;3.63;;
31754;SDS011;18325;52.018;4.726;2023-10-31T09:36:17;8.03;;;3.87;;
31754;SDS011;18325;52.018;4.726;2023-10-31T09:38:45;9.77;;;3.23;;
31754;SDS011;18325;52.018;4.726;2023-10-31T09:41:13;8.27;;;3.90;;
31754;SDS011;18325;52.018;4.726;2023-10-31T09:43:58;8.57;;;4.33;;
31754;SDS011;18325;52.018;4.726;2023-10-31T09:46:26;7.17;;;4.47;;
31754;SDS011;18325;52.018;4.726;2023-10-31T10:05:42;3.50;;;1.97;;
31754;SDS011;18325;52.018;4.726;2023-10-31T10:08:10;2.70;;;1.97;;
31754;SDS011;18325;52.018;4.726;2023-10-31T10:10:36;3.30;;;2.37;;
31754;SDS011;18325;52.018;4.726;2023-10-31T10:13:03;7.53;;;2.30;;
31754;SDS011;18325;52.018;4.726;2023-10-31T10:15:29;6.23;;;2.17;;
31754;SDS011;18325;52.018;4.726;2023-10-31T10:17:56;4.57;;;2.30;;
31754;SDS011;18325;52.018;4.726;2023-10-31T10:20:22;5.20;;;2.23;;
31754;SDS011;18325;52.018;4.726;2023-10-31T10:22:50;9.30;;;2.47;;
31754;SDS011;18325;52.018;4.726;2023-10-31T10:25:17;7.13;;;2.20;;
31754;SDS011;18325;52.018;4.726;2023-10-31T10:27:44;4.17;;;2.13;;
31754;SDS011;18325;52.018;4.726;2023-10-31T10:30:14;7.83;;;2.47;;
31754;SDS011;18325;52.018;4.726;2023-10-31T10:32:42;7.20;;;3.00;;
31754;SDS011;18325;52.018;4.726;2023-10-31T10:35:09;4.57;;;2.43;;
31754;SDS011;18325;52.018;4.726;2023-10-31T10:37:40;5.93;;;2.40;;
31754;SDS011;18325;52.018;4.726;2023-10-31T10:40:08;4.97;;;2.40;;
31754;SDS011;18325;52.018;4.726;2023-10-31T10:42:38;6.47;;;3.00;;
31754;SDS011;18325;52.018;4.726;2023-10-31T10:45:10;6.57;;;2.63;;
31754;SDS011;18325;52.018;4.726;2023-10-31T10:47:39;11.40;;;3.10;;
31754;SDS011;18325;52.018;4.726;2023-10-31T10:50:06;5.70;;;3.00;;
31754;SDS011;18325;52.018;4.726;2023-10-31T10:55:38;5.10;;;2.63;;
31754;SDS011;18325;52.018;4.726;2023-10-31T10:58:27;7.70;;;3.33;;
31754;SDS011;18325;52.018;4.726;2023-10-31T11:00:59;7.97;;;3.40;;
31754;SDS011;18325;52.018;4.726;2023-10-31T11:03:27;9.20;;;4.13;;
31754;SDS011;18325;52.018;4.726;2023-10-31T11:05:55;11.10;;;3.90;;
31754;SDS011;18325;52.018;4.726;2023-10-31T11:08:23;13.30;;;4.97;;
31754;SDS011;18325;52.018;4.726;2023-10-31T11:13:34;11.70;;;7.67;;
31754;SDS011;18325;52.018;4.726;2023-10-31T11:16:02;15.13;;;8.27;;
31754;SDS011;18325;52.018;4.726;2023-10-31T11:18:34;18.13;;;10.03;;
31754;SDS011;18325;52.018;4.726;2023-10-31T11:21:00;20.07;;;9.23;;
31754;SDS011;18325;52.018;4.726;2023-10-31T11:23:27;19.73;;;10.60;;
31754;SDS011;18325;52.018;4.726;2023-10-31T11:25:53;20.50;;;9.77;;
31754;SDS011;18325;52.018;4.726;2023-10-31T11:28:23;19.30;;;9.97;;
31754;SDS011;18325;52.018;4.726;2023-10-31T11:31:08;21.03;;;10.73;;
31754;SDS011;18325;52.018;4.726;2023-10-31T11:33:35;22.77;;;11.63;;
31754;SDS011;18325;52.018;4.726;2023-10-31T11:36:05;22.07;;;11.03;;
31754;SDS011;18325;52.018;4.726;2023-10-31T11:38:34;25.97;;;11.47;;
31754;SDS011;18325;52.018;4.726;2023-10-31T11:41:01;26.57;;;12.40;;
31754;SDS011;18325;52.018;4.726;2023-10-31T11:43:37;23.60;;;12.13;;
31754;SDS011;18325;52.018;4.726;2023-10-31T11:46:19;26.27;;;11.37;;
31754;SDS011;18325;52.018;4.726;2023-10-31T11:48:59;24.07;;;11.07;;
31754;SDS011;18325;52.018;4.726;2023-10-31T11:51:30;23.40;;;11.30;;
31754;SDS011;18325;52.018;4.726;2023-10-31T11:53:56;26.10;;;11.60;;
31754;SDS011;18325;52.018;4.726;2023-10-31T11:56:23;25.23;;;10.73;;
31754;SDS011;18325;52.018;4.726;2023-10-31T11:58:58;22.33;;;10.37;;
31754;SDS011;18325;52.018;4.726;2023-10-31T12:01:29;26.67;;;9.53;;
31754;SDS011;18325;52.018;4.726;2023-10-31T12:03:55;20.27;;;9.30;;
31754;SDS011;18325;52.018;4.726;2023-10-31T12:06:22;16.63;;;8.57;;
31754;SDS011;18325;52.018;4.726;2023-10-31T12:12:11;19.07;;;9.10;;
31754;SDS011;18325;52.018;4.726;2023-10-31T12:14:39;22.30;;;9.00;;
31754;SDS011;18325;52.018;4.726;2023-10-31T12:17:06;16.90;;;7.83;;
31754;SDS011;18325;52.018;4.726;2023-10-31T12:19:35;16.90;;;8.80;;
31754;SDS011;18325;52.018;4.726;2023-10-31T12:22:01;17.07;;;8.37;;
31754;SDS011;18325;52.018;4.726;2023-10-31T12:24:28;21.17;;;8.80;;
31754;SDS011;18325;52.018;4.726;2023-10-31T12:26:55;18.33;;;9.10;;
31754;SDS011;18325;52.018;4.726;2023-10-31T12:32:43;17.60;;;8.60;;
31754;SDS011;18325;52.018;4.726;2023-10-31T12:35:11;17.93;;;9.03;;
31754;SDS011;18325;52.018;4.726;2023-10-31T12:37:41;16.20;;;8.07;;
31754;SDS011;18325;52.018;4.726;2023-10-31T12:40:09;16.77;;;8.13;;
31754;SDS011;18325;52.018;4.726;2023-10-31T12:42:36;18.97;;;9.13;;
31754;SDS011;18325;52.018;4.726;2023-10-31T12:45:09;14.73;;;8.43;;
31754;SDS011;18325;52.018;4.726;2023-10-31T12:47:36;16.43;;;8.17;;
31754;SDS011;18325;52.018;4.726;2023-10-31T12:50:24;15.80;;;8.70;;
31754;SDS011;18325;52.018;4.726;2023-10-31T12:52:51;16.77;;;9.77;;
31754;SDS011;18325;52.018;4.726;2023-10-31T12:55:18;17.23;;;8.40;;
31754;SDS011;18325;52.018;4.726;2023-10-31T12:57:46;19.10;;;8.43;;
31754;SDS011;18325;52.018;4.726;2023-10-31T13:00:13;16.90;;;7.80;;
31754;SDS011;18325;52.018;4.726;2023-10-31T13:02:49;15.00;;;8.57;;
31754;SDS011;18325;52.018;4.726;2023-10-31T13:05:16;16.07;;;8.23;;
31754;SDS011;18325;52.018;4.726;2023-10-31T13:07:48;15.23;;;8.27;;
31754;SDS011;18325;52.018;4.726;2023-10-31T13:10:16;18.10;;;8.97;;
31754;SDS011;18325;52.018;4.726;2023-10-31T13:12:43;17.27;;;8.37;;
31754;SDS011;18325;52.018;4.726;2023-10-31T13:18:04;15.23;;;8.50;;
31754;SDS011;18325;52.018;4.726;2023-10-31T13:20:31;20.10;;;9.50;;
31754;SDS011;18325;52.018;4.726;2023-10-31T13:23:14;22.87;;;11.43;;
31754;SDS011;18325;52.018;4.726;2023-10-31T13:25:40;25.90;;;12.17;;
31754;SDS011;18325;52.018;4.726;2023-10-31T13:28:07;31.27;;;14.70;;
31754;SDS011;18325;52.018;4.726;2023-10-31T13:30:37;30.50;;;15.83;;
31754;SDS011;18325;52.018;4.726;2023-10-31T13:33:06;28.83;;;15.83;;
31754;SDS011;18325;52.018;4.726;2023-10-31T13:35:36;28.00;;;14.63;;
31754;SDS011;18325;52.018;4.726;2023-10-31T13:38:03;25.63;;;14.40;;
31754;SDS011;18325;52.018;4.726;2023-10-31T13:40:31;28.57;;;14.30;;
31754;SDS011;18325;52.018;4.726;2023-10-31T13:42:58;31.83;;;15.67;;
31754;SDS011;18325;52.018;4.726;2023-10-31T13:45:25;27.33;;;13.77;;
31754;SDS011;18325;52.018;4.726;2023-10-31T13:47:51;30.17;;;14.87;;
31754;SDS011;18325;52.018;4.726;2023-10-31T13:50:18;25.33;;;13.00;;
31754;SDS011;18325;52.018;4.726;2023-10-31T13:52:44;23.37;;;13.67;;
31754;SDS011;18325;52.018;4.726;2023-10-31T13:55:26;19.63;;;11.30;;
31754;SDS011;18325;52.018;4.726;2023-10-31T13:58:02;20.50;;;11.60;;
31754;SDS011;18325;52.018;4.726;2023-10-31T14:00:28;23.00;;;10.53;;
31754;SDS011;18325;52.018;4.726;2023-10-31T14:02:55;21.20;;;11.07;;
31754;SDS011;18325;52.018;4.726;2023-10-31T14:05:22;20.30;;;10.50;;
31754;SDS011;18325;52.018;4.726;2023-10-31T14:07:49;18.93;;;10.47;;
31754;SDS011;18325;52.018;4.726;2023-10-31T14:10:16;17.97;;;10.63;;
31754;SDS011;18325;52.018;4.726;2023-10-31T14:12:44;17.50;;;10.27;;
31754;SDS011;18325;52.018;4.726;2023-10-31T14:15:13;18.93;;;10.73;;
31754;SDS011;18325;52.018;4.726;2023-10-31T14:17:40;13.17;;;8.37;;
31754;SDS011;18325;52.018;4.726;2023-10-31T14:20:07;16.33;;;7.93;;
31754;SDS011;18325;52.018;4.726;2023-10-31T14:22:34;14.00;;;7.70;;
31754;SDS011;18325;52.018;4.726;2023-10-31T14:25:00;13.47;;;6.60;;
31754;SDS011;18325;52.018;4.726;2023-10-31T14:27:29;10.70;;;5.73;;
31754;SDS011;18325;52.018;4.726;2023-10-31T14:29:56;8.97;;;5.43;;
31754;SDS011;18325;52.018;4.726;2023-10-31T14:32:25;12.83;;;5.23;;
31754;SDS011;18325;52.018;4.726;2023-10-31T14:35:00;11.13;;;5.57;;
31754;SDS011;18325;52.018;4.726;2023-10-31T14:37:27;8.40;;;5.10;;
31754;SDS011;18325;52.018;4.726;2023-10-31T14:39:57;9.83;;;4.97;;
31754;SDS011;18325;52.018;4.726;2023-10-31T14:42:23;9.07;;;5.33;;
31754;SDS011;18325;52.018;4.726;2023-10-31T14:51:37;11.03;;;5.20;;
31754;SDS011;18325;52.018;4.726;2023-10-31T14:54:18;12.73;;;5.20;;
31754;SDS011;18325;52.018;4.726;2023-10-31T15:00:10;9.83;;;5.90;;
31754;SDS011;18325;52.018;4.726;2023-10-31T15:02:38;8.73;;;5.77;;
31754;SDS011;18325;52.018;4.726;2023-10-31T15:05:13;8.27;;;5.00;;
31754;SDS011;18325;52.018;4.726;2023-10-31T15:07:41;14.70;;;5.17;;
31754;SDS011;18325;52.018;4.726;2023-10-31T15:10:20;9.87;;;4.90;;
31754;SDS011;18325;52.018;4.726;2023-10-31T15:12:47;10.23;;;5.10;;
31754;SDS011;18325;52.018;4.726;2023-10-31T15:15:15;8.13;;;5.00;;
31754;SDS011;18325;52.018;4.726;2023-10-31T15:17:44;9.47;;;4.90;;
31754;SDS011;18325;52.018;4.726;2023-10-31T15:26:55;9.30;;;4.23;;
31754;SDS011;18325;52.018;4.726;2023-10-31T15:29:34;7.37;;;3.70;;
31754;SDS011;18325;52.018;4.726;2023-10-31T15:32:00;6.93;;;4.37;;
31754;SDS011;18325;52.018;4.726;2023-10-31T15:34:27;6.27;;;3.77;;
31754;SDS011;18325;52.018;4.726;2023-10-31T15:37:04;6.97;;;4.23;;
31754;SDS011;18325;52.018;4.726;2023-10-31T15:39:37;6.33;;;4.13;;
31754;SDS011;18325;52.018;4.726;2023-10-31T15:42:05;6.23;;;4.10;;
31754;SDS011;18325;52.018;4.726;2023-10-31T15:44:32;6.47;;;3.63;;
31754;SDS011;18325;52.018;4.726;2023-10-31T15:47:00;6.10;;;3.83;;
31754;SDS011;18325;52.018;4.726;2023-10-31T15:49:39;4.93;;;3.57;;
31754;SDS011;18325;52.018;4.726;2023-10-31T15:52:05;6.23;;;3.67;;
31754;SDS011;18325;52.018;4.726;2023-10-31T15:54:36;6.20;;;3.60;;
31754;SDS011;18325;52.018;4.726;2023-10-31T15:57:15;7.03;;;3.40;;
31754;SDS011;18325;52.018;4.726;2023-10-31T16:03:05;6.47;;;3.87;;
31754;SDS011;18325;52.018;4.726;2023-10-31T16:08:40;5.33;;;2.97;;
31754;SDS011;18325;52.018;4.726;2023-10-31T16:11:08;6.07;;;3.73;;
31754;SDS011;18325;52.018;4.726;2023-10-31T16:13:44;6.70;;;4.03;;
31754;SDS011;18325;52.018;4.726;2023-10-31T16:16:12;7.43;;;4.30;;
31754;SDS011;18325;52.018;4.726;2023-10-31T16:18:38;11.43;;;4.77;;
31754;SDS011;18325;52.018;4.726;2023-10-31T16:21:05;6.27;;;4.17;;
31754;SDS011;18325;52.018;4.726;2023-10-31T16:23:32;9.00;;;5.20;;
31754;SDS011;18325;52.018;4.726;2023-10-31T16:25:59;9.97;;;5.40;;
31754;SDS011;18325;52.018;4.726;2023-10-31T16:28:27;9.83;;;4.93;;
31754;SDS011;18325;52.018;4.726;2023-10-31T16:31:00;11.30;;;5.87;;
31754;SDS011;18325;52.018;4.726;2023-10-31T16:33:27;8.63;;;5.17;;
31754;SDS011;18325;52.018;4.726;2023-10-31T16:36:02;9.27;;;5.20;;
31754;SDS011;18325;52.018;4.726;2023-10-31T16:38:34;9.33;;;5.30;;
31754;SDS011;18325;52.018;4.726;2023-10-31T16:41:04;9.30;;;5.33;;
31754;SDS011;18325;52.018;4.726;2023-10-31T16:43:44;10.80;;;5.80;;
31754;SDS011;18325;52.018;4.726;2023-10-31T17:44:11;12.13;;;7.47;;
31754;SDS011;18325;52.018;4.726;2023-10-31T17:47:19;12.57;;;6.60;;
31754;SDS011;18325;52.018;4.726;2023-10-31T17:49:54;11.13;;;6.70;;
31754;SDS011;18325;52.018;4.726;2023-10-31T17:52:43;12.37;;;7.37;;
31754;SDS011;18325;52.018;4.726;2023-10-31T17:55:12;13.03;;;7.60;;
31754;SDS011;18325;52.018;4.726;2023-10-31T18:01:24;14.30;;;7.83;;
31754;SDS011;18325;52.018;4.726;2023-10-31T18:04:06;13.27;;;7.27;;
31754;SDS011;18325;52.018;4.726;2023-10-31T18:07:05;11.60;;;7.13;;
31754;SDS011;18325;52.018;4.726;2023-10-31T18:16:36;12.70;;;6.73;;
31754;SDS011;18325;52.018;4.726;2023-10-31T18:19:17;14.10;;;7.70;;
31754;SDS011;18325;52.018;4.726;2023-10-31T18:21:50;13.13;;;7.27;;
31754;SDS011;18325;52.018;4.726;2023-10-31T18:27:21;12.03;;;7.40;;
31754;SDS011;18325;52.018;4.726;2023-10-31T18:29:50;11.83;;;7.10;;
31754;SDS011;18325;52.018;4.726;2023-10-31T18:32:18;12.10;;;6.80;;